Flight Track Log - Related Links

Times and Time Zones

All times are in EDT time to prevent confusion due to time zone crossing. See the N143DE flight status page for this flight to view local times or setup timezone preferences in your user account.

Time Position Orientation Groundspeed Altitude Reporting Facility
EDT Latitude Longitude Course Direction KTS MPH feet Rate Location/Type
Fri 03:03:27 AM 30.5317 -84.3636 351° North 180 207 6,800  Level Jacksonville Center
Fri 03:04:27 AM 30.5711 -84.3667 356° North 156 180 20,000 1,850 Climbing Jacksonville Center
Fri 03:05:27 AM 30.6128 -84.3769 348° North 156 180 10,500 -3,850 Descending Jacksonville Center
Fri 03:06:27 AM 30.6567 -84.3850 351° North 156 180 12,300 1,600 Climbing Jacksonville Center
Fri 03:07:27 AM 30.7067 -84.3931 352° North 166 191 13,700 1,400 Climbing Jacksonville Center
Fri 03:08:27 AM 30.7544 -84.3986 354° North 171 197 15,100 1,400 Climbing Jacksonville Center
Fri 03:09:27 AM 30.8044 -84.4042 355° North 171 197 16,500 1,350 Climbing Jacksonville Center
Fri 03:10:27 AM 30.8503 -84.4169 347° North 171 197 17,800 1,200 Climbing Jacksonville Center
Fri 03:11:27 AM 30.8961 -84.4275 349° North 171 197 18,900 1,000 Climbing Jacksonville Center
Fri 03:12:27 AM 30.9439 -84.4428 345° North 171 197 19,800 600 Climbing Jacksonville Center
Fri 03:13:27 AM 30.9958 -84.4631 341° North 177 204 20,100 150 Climbing Jacksonville Center
Fri 03:14:27 AM 31.0583 -84.4836 344° North 206 237 20,100 -50 Level Jacksonville Center
Fri 03:15:27 AM 31.1228 -84.5064 343° North 227 261 20,000 -50 Descending Jacksonville Center
Fri 03:16:27 AM 31.1933 -84.5319 343° North 232 267 20,000  Level Jacksonville Center
Fri 03:17:27 AM 31.2578 -84.5550 343° North 238 274 20,000  Level Jacksonville Center
Fri 03:18:27 AM 31.3244 -84.5781 344° North 244 281 20,000  Level Jacksonville Center
Fri 03:20:57 AM 31.4822 -84.6356 343° North 244 281 20,000  Level Atlanta Center
Fri 03:21:57 AM 31.5467 -84.6603 342° North 244 281 20,000  Level Atlanta Center
Fri 03:22:57 AM 31.6156 -84.6828 344° North 244 281 20,000  Level Atlanta Center
Fri 03:23:57 AM 31.6842 -84.7100 341° North 244 281 20,000  Level Atlanta Center
Fri 03:24:57 AM 31.7447 -84.7325 342° North 239 275 20,000  Level Atlanta Center
Fri 03:25:57 AM 31.8072 -84.7525 345° North 234 269 20,000  Level Atlanta Center
Fri 03:26:57 AM 31.8697 -84.7775 341° North 234 269 20,000  Level Atlanta Center
Fri 03:27:57 AM 31.9322 -84.8000 343° North 234 269 20,000  Level Atlanta Center
Fri 03:28:57 AM 31.9967 -84.8200 345° North 229 264 20,000  Level Atlanta Center
Fri 03:29:57 AM 32.0614 -84.8428 343° North 229 264 20,000  Level Atlanta Center
Fri 03:30:57 AM 32.1217 -84.8678 341° North 229 264 20,000 -450 Level Atlanta Center
Fri 03:31:57 AM 32.1903 -84.8906 344° North 235 270 19,100 -1,000 Descending Atlanta Center
Fri 03:32:57 AM 32.2678 -84.8739 10° North 250 288 18,000 -900 Descending Atlanta Center
Fri 03:33:57 AM 32.3492 -84.8650 North 273 314 17,300 -750 Descending Atlanta Center
Fri 03:34:57 AM 32.4222 -84.8483 11° North 273 314 16,500 -800 Descending Atlanta Center
Fri 03:35:57 AM 32.5017 -84.8392 North 273 314 15,700 -700 Descending Atlanta Center
Fri 03:36:57 AM 32.5747 -84.8325 North 273 314 15,100 -300 Descending Atlanta Center
Fri 03:37:57 AM 32.6481 -84.8158 11° North 273 314 15,100 -400 Level Atlanta Center
Fri 03:38:57 AM 32.7211 -84.8067 North 273 314 14,300 -850 Descending Atlanta Center
Fri 03:39:57 AM 32.8089 -84.7975 North 278 320 13,400 -850 Descending Atlanta Center
Fri 03:40:57 AM 32.8839 -84.7833 North 278 320 12,600 -750 Descending Atlanta Center
Fri 03:41:57 AM 32.9550 -84.7742 North 266 306 11,900 -650 Descending Atlanta Center
Fri 03:42:57 AM 33.0239 -84.7622 North 250 288 11,300 -400 Descending Atlanta Center
Fri 03:43:57 AM 33.0931 -84.7506 North 250 288 11,100 -100 Descending Atlanta Center
Fri 03:44:57 AM 33.1494 -84.7386 10° North 237 273 11,100  Level Atlanta Center
Fri 03:45:57 AM 33.2142 -84.7292 North 237 273 11,100  Level Atlanta Center
Fri 03:46:57 AM 33.2789 -84.7197 North 237 273 11,100  Level Atlanta Center
Fri 03:47:57 AM 33.3436 -84.7078 North 237 273 11,100  Level Atlanta Center
Fri 03:48:57 AM 33.4064 -84.6983 North 237 273 11,100 -37 Level Atlanta Center
Fri 03:50:41 AM 33.5167 -84.6333 26° Northeast 236 272 11,000 -37 Descending Atlanta TRACON
Fri 03:51:41 AM 33.5833 -84.6167 12° North 236 272 11,000 -100 Level Atlanta TRACON
Fri 03:52:41 AM 33.6333 -84.5833 29° Northeast 236 272 10,800 -750 Descending Atlanta TRACON
Fri 03:53:41 AM 33.7000 -84.5500 23° Northeast 242 278 9,500 -1,350 Descending Atlanta TRACON
Fri 03:54:41 AM 33.7667 -84.5167 23° Northeast 239 275 8,100 -1,500 Descending Atlanta TRACON
Fri 03:55:41 AM 33.8333 -84.5000 12° North 242 278 6,500 -1,500 Descending Atlanta TRACON
Fri 03:56:41 AM 33.8833 -84.4500 40° Northeast 241 277 5,100 -1,300 Descending Atlanta TRACON
Fri 03:57:41 AM 33.9333 -84.4000 40° Northeast 234 269 3,900 -1,050 Descending Atlanta TRACON
Fri 03:58:41 AM 33.9833 -84.3500 40° Northeast 212 244 3,000 -500 Descending Atlanta TRACON
Fri 03:59:41 AM 34.0000 -84.4000 292° West 166 191 2,900 -50 Descending Atlanta TRACON
Fri 04:00:41 AM 34.0167 -84.4333 301° West 142 163 2,900 -100 Level Atlanta TRACON
Fri 04:01:41 AM 34.0167 -84.4833 270° West 111 128 2,700 -400 Descending Atlanta TRACON
Fri 04:02:41 AM 34.0167 -84.5167 270° West 112 129 2,100 -500 Descending Atlanta TRACON
Fri 04:03:41 AM 34.0167 -84.5500 270° West 102 117 1,700 267 Descending Atlanta TRACON
Fri 04:05:00 AM 34.0000 -84.5833 299° West  Level FlightAware Approximate
Fri 04:05:41 AM 34.0167 -84.6333 299° West 117 135 2,900  Level Atlanta TRACON
Fri 04:06:41 AM 34.0000 -84.6667 239° Southwest 153 176 3,200 50 Climbing Atlanta TRACON
Fri 04:07:41 AM 33.9667 -84.7000 220° Southwest 147 169 3,000 -100 Descending Atlanta TRACON
Fri 04:08:41 AM 33.9500 -84.7500 248° West 136 157 3,000  Level Atlanta TRACON
Fri 04:09:41 AM 33.9500 -84.7833 270° West 120 138 3,000  Level Atlanta TRACON
Fri 04:10:41 AM 33.9667 -84.8000 320° Northwest 126 145 3,000  Level Atlanta TRACON
Fri 04:11:41 AM 33.9833 -84.8000 360° North 142 163 3,000  Level Atlanta TRACON
Fri 04:12:41 AM 34.0000 -84.7500 68° East 131 151 3,000  Level Atlanta TRACON

Login

Don't have an account? Register now (free) for customized features, flight alerts, and more!